sensor_id;sensor_type;location;lat;lon;timestamp;pressure;altitude;pressure_sealevel;temperature;humidity
67052;BME280;53957;47.222;18.670;2022-08-07T00:01:06;100390.97;;;19.20;73.76
67052;BME280;53957;47.222;18.670;2022-08-07T00:04:29;100388.50;;;19.27;73.36
67052;BME280;53957;47.222;18.670;2022-08-07T00:07:32;100392.31;;;19.39;73.09
67052;BME280;53957;47.222;18.670;2022-08-07T00:10:42;100392.97;;;19.36;73.12
67052;BME280;53957;47.222;18.670;2022-08-07T00:13:58;100391.75;;;19.33;73.39
67052;BME280;53957;47.222;18.670;2022-08-07T00:17:03;100396.16;;;19.38;73.34
67052;BME280;53957;47.222;18.670;2022-08-07T00:20:08;100391.88;;;19.37;73.21
67052;BME280;53957;47.222;18.670;2022-08-07T00:23:17;100390.75;;;19.38;73.41
67052;BME280;53957;47.222;18.670;2022-08-07T00:26:22;100379.91;;;19.38;73.31
67052;BME280;53957;47.222;18.670;2022-08-07T00:29:45;100382.06;;;19.44;73.35
67052;BME280;53957;47.222;18.670;2022-08-07T00:32:49;100385.09;;;19.43;73.18
67052;BME280;53957;47.222;18.670;2022-08-07T00:35:53;100383.88;;;19.40;72.93
67052;BME280;53957;47.222;18.670;2022-08-07T00:38:57;100391.41;;;19.47;73.30
67052;BME280;53957;47.222;18.670;2022-08-07T00:42:01;100389.16;;;19.37;73.21
67052;BME280;53957;47.222;18.670;2022-08-07T00:45:08;100395.47;;;19.41;73.12
67052;BME280;53957;47.222;18.670;2022-08-07T00:48:18;100393.69;;;19.45;72.50
67052;BME280;53957;47.222;18.670;2022-08-07T00:51:32;100391.09;;;19.36;73.27
67052;BME280;53957;47.222;18.670;2022-08-07T00:54:55;100386.69;;;19.31;73.64
67052;BME280;53957;47.222;18.670;2022-08-07T00:57:58;100391.84;;;19.24;73.81
67052;BME280;53957;47.222;18.670;2022-08-07T01:01:01;100395.25;;;19.34;73.56
67052;BME280;53957;47.222;18.670;2022-08-07T01:04:05;100391.62;;;19.29;73.48
67052;BME280;53957;47.222;18.670;2022-08-07T01:07:10;100388.03;;;19.25;73.82
67052;BME280;53957;47.222;18.670;2022-08-07T01:10:14;100384.75;;;19.20;74.23
67052;BME280;53957;47.222;18.670;2022-08-07T01:13:20;100388.12;;;19.17;73.91
67052;BME280;53957;47.222;18.670;2022-08-07T01:16:24;100390.28;;;19.23;74.19
67052;BME280;53957;47.222;18.670;2022-08-07T01:19:33;100390.16;;;19.20;73.92
67052;BME280;53957;47.222;18.670;2022-08-07T01:22:41;100390.16;;;19.20;74.21
67052;BME280;53957;47.222;18.670;2022-08-07T01:26:07;100386.78;;;19.23;73.86
67052;BME280;53957;47.222;18.670;2022-08-07T01:29:15;100386.09;;;19.26;74.01
67052;BME280;53957;47.222;18.670;2022-08-07T01:32:19;100384.09;;;19.23;74.37
67052;BME280;53957;47.222;18.670;2022-08-07T01:35:28;100375.75;;;19.15;74.32
67052;BME280;53957;47.222;18.670;2022-08-07T01:38:51;100381.72;;;19.09;74.41
67052;BME280;53957;47.222;18.670;2022-08-07T01:41:55;100384.84;;;18.98;75.22
67052;BME280;53957;47.222;18.670;2022-08-07T01:45:19;100379.00;;;19.09;74.92
67052;BME280;53957;47.222;18.670;2022-08-07T01:48:43;100383.25;;;18.97;75.22
67052;BME280;53957;47.222;18.670;2022-08-07T01:51:49;100381.00;;;18.99;75.12
67052;BME280;53957;47.222;18.670;2022-08-07T01:55:08;100381.44;;;18.89;76.03
67052;BME280;53957;47.222;18.670;2022-08-07T01:58:31;100388.09;;;18.92;75.85
67052;BME280;53957;47.222;18.670;2022-08-07T02:01:58;100392.25;;;18.89;76.41
67052;BME280;53957;47.222;18.670;2022-08-07T02:05:22;100377.59;;;18.90;76.06
67052;BME280;53957;47.222;18.670;2022-08-07T02:08:48;100384.84;;;18.98;75.90
67052;BME280;53957;47.222;18.670;2022-08-07T02:12:00;100391.59;;;19.05;75.79
67052;BME280;53957;47.222;18.670;2022-08-07T02:15:22;100383.25;;;18.97;75.82
67052;BME280;53957;47.222;18.670;2022-08-07T02:18:30;100382.94;;;18.99;75.38
67052;BME280;53957;47.222;18.670;2022-08-07T02:21:38;100383.84;;;19.15;74.28
67052;BME280;53957;47.222;18.670;2022-08-07T02:24:58;100377.66;;;19.15;74.40
67052;BME280;53957;47.222;18.670;2022-08-07T02:28:03;100387.34;;;19.28;73.95
67052;BME280;53957;47.222;18.670;2022-08-07T02:31:09;100389.50;;;19.35;73.30
67052;BME280;53957;47.222;18.670;2022-08-07T02:34:32;100393.91;;;19.40;73.17
67052;BME280;53957;47.222;18.670;2022-08-07T02:37:38;100393.91;;;19.40;73.30
67052;BME280;53957;47.222;18.670;2022-08-07T02:40:46;100401.44;;;19.46;72.61
67052;BME280;53957;47.222;18.670;2022-08-07T02:43:57;100406.06;;;19.58;72.76
67052;BME280;53957;47.222;18.670;2022-08-07T02:47:02;100409.44;;;19.43;72.85
67052;BME280;53957;47.222;18.670;2022-08-07T02:50:06;100409.22;;;19.36;73.12
67052;BME280;53957;47.222;18.670;2022-08-07T02:53:14;100400.66;;;19.34;73.28
67052;BME280;53957;47.222;18.670;2022-08-07T02:56:21;100394.34;;;19.29;73.39
67052;BME280;53957;47.222;18.670;2022-08-07T02:59:30;100395.91;;;19.30;73.11
67052;BME280;53957;47.222;18.670;2022-08-07T03:02:36;100397.97;;;19.34;73.39
67052;BME280;53957;47.222;18.670;2022-08-07T03:05:54;100405.38;;;19.24;73.25
67052;BME280;53957;47.222;18.670;2022-08-07T03:09:04;100404.81;;;19.19;73.57
67052;BME280;53957;47.222;18.670;2022-08-07T03:12:08;100398.59;;;19.18;73.56
67052;BME280;53957;47.222;18.670;2022-08-07T03:15:24;100397.03;;;19.17;73.57
67052;BME280;53957;47.222;18.670;2022-08-07T03:18:48;100396.47;;;19.11;74.56
67052;BME280;53957;47.222;18.670;2022-08-07T03:21:51;100400.63;;;19.09;74.87
67052;BME280;53957;47.222;18.670;2022-08-07T03:24:55;100415.59;;;19.06;74.54
67052;BME280;53957;47.222;18.670;2022-08-07T03:27:59;100418.84;;;18.99;74.45
67052;BME280;53957;47.222;18.670;2022-08-07T03:31:23;100431.25;;;19.01;74.92
67052;BME280;53957;47.222;18.670;2022-08-07T03:34:49;100429.03;;;19.15;74.44
67052;BME280;53957;47.222;18.670;2022-08-07T03:38:14;100430.81;;;19.11;74.38
67052;BME280;53957;47.222;18.670;2022-08-07T03:41:23;100436.22;;;19.11;74.18
67052;BME280;53957;47.222;18.670;2022-08-07T03:44:48;100429.22;;;19.10;73.96
67052;BME280;53957;47.222;18.670;2022-08-07T03:47:59;100431.03;;;19.06;74.24
67052;BME280;53957;47.222;18.670;2022-08-07T03:51:03;100425.88;;;19.13;74.16
67052;BME280;53957;47.222;18.670;2022-08-07T03:54:12;100427.88;;;19.16;74.12
67052;BME280;53957;47.222;18.670;2022-08-07T03:57:36;100425.75;;;19.22;73.77
67052;BME280;53957;47.222;18.670;2022-08-07T04:01:01;100436.38;;;19.27;73.92
67052;BME280;53957;47.222;18.670;2022-08-07T04:04:11;100426.69;;;19.38;73.62
67052;BME280;53957;47.222;18.670;2022-08-07T04:07:20;100431.06;;;19.30;72.81
67052;BME280;53957;47.222;18.670;2022-08-07T04:10:25;100439.41;;;19.38;72.99
67052;BME280;53957;47.222;18.670;2022-08-07T04:13:33;100436.00;;;19.28;73.36
67052;BME280;53957;47.222;18.670;2022-08-07T04:16:56;100439.66;;;19.33;74.22
67052;BME280;53957;47.222;18.670;2022-08-07T04:20:09;100435.12;;;19.24;74.81
67052;BME280;53957;47.222;18.670;2022-08-07T04:23:13;100445.03;;;19.20;75.28
67052;BME280;53957;47.222;18.670;2022-08-07T04:26:21;100449.63;;;19.07;77.96
67052;BME280;53957;47.222;18.670;2022-08-07T04:29:30;100452.78;;;19.09;77.94
67052;BME280;53957;47.222;18.670;2022-08-07T04:32:53;100463.16;;;18.86;79.74
67052;BME280;53957;47.222;18.670;2022-08-07T04:36:01;100462.62;;;18.72;82.36
67052;BME280;53957;47.222;18.670;2022-08-07T04:39:08;100474.37;;;18.76;82.59
67052;BME280;53957;47.222;18.670;2022-08-07T04:42:12;100485.53;;;18.74;84.45
67052;BME280;53957;47.222;18.670;2022-08-07T04:45:15;100485.16;;;18.42;87.90
67052;BME280;53957;47.222;18.670;2022-08-07T04:52:30;100482.03;;;18.31;95.43
67052;BME280;53957;47.222;18.670;2022-08-07T05:03:22;100501.00;;;17.84;98.93
67052;BME280;53957;47.222;18.670;2022-08-07T05:07:08;100492.72;;;17.98;97.69
67052;BME280;53957;47.222;18.670;2022-08-07T05:10:30;100499.94;;;17.76;100.00
67052;BME280;53957;47.222;18.670;2022-08-07T05:13:42;100495.50;;;17.71;100.00
67052;BME280;53957;47.222;18.670;2022-08-07T05:17:11;100487.16;;;17.64;100.00
67052;BME280;53957;47.222;18.670;2022-08-07T05:20:47;100498.25;;;17.63;100.00
67052;BME280;53957;47.222;18.670;2022-08-07T05:23:57;100505.06;;;17.60;100.00
67052;BME280;53957;47.222;18.670;2022-08-07T05:27:05;100498.37;;;17.66;100.00
67052;BME280;53957;47.222;18.670;2022-08-07T05:30:30;100487.25;;;17.68;100.00
67052;BME280;53957;47.222;18.670;2022-08-07T05:33:36;100506.69;;;17.91;99.68
67052;BME280;53957;47.222;18.670;2022-08-07T05:36:42;100512.41;;;17.98;99.58
67052;BME280;53957;47.222;18.670;2022-08-07T05:39:51;100516.50;;;18.05;100.00
67052;BME280;53957;47.222;18.670;2022-08-07T05:43:15;100518.59;;;17.99;100.00
67052;BME280;53957;47.222;18.670;2022-08-07T05:46:21;100525.56;;;18.00;100.00
67052;BME280;53957;47.222;18.670;2022-08-07T05:49:28;100521.59;;;17.97;100.00
67052;BME280;53957;47.222;18.670;2022-08-07T05:52:42;100529.78;;;18.10;100.00
67052;BME280;53957;47.222;18.670;2022-08-07T05:55:49;100519.19;;;18.05;100.00
67052;BME280;53957;47.222;18.670;2022-08-07T05:59:15;100514.03;;;18.21;100.00
67052;BME280;53957;47.222;18.670;2022-08-07T06:02:19;100517.38;;;18.17;100.00
67052;BME280;53957;47.222;18.670;2022-08-07T06:05:32;100516.78;;;18.12;100.00
67052;BME280;53957;47.222;18.670;2022-08-07T06:08:38;100518.22;;;18.09;99.40
67052;BME280;53957;47.222;18.670;2022-08-07T06:11:48;100526.03;;;18.32;99.04
67052;BME280;53957;47.222;18.670;2022-08-07T06:14:53;100528.78;;;18.23;100.00
67052;BME280;53957;47.222;18.670;2022-08-07T06:18:05;100524.72;;;18.38;98.64
67052;BME280;53957;47.222;18.670;2022-08-07T06:21:11;100531.06;;;18.42;98.62
67052;BME280;53957;47.222;18.670;2022-08-07T06:24:35;100537.97;;;18.52;98.47
67052;BME280;53957;47.222;18.670;2022-08-07T06:28:05;100534.75;;;18.59;98.95
67052;BME280;53957;47.222;18.670;2022-08-07T06:31:10;100536.25;;;18.69;97.88
67052;BME280;53957;47.222;18.670;2022-08-07T06:34:13;100529.69;;;18.57;98.39
67052;BME280;53957;47.222;18.670;2022-08-07T06:37:16;100530.00;;;18.56;99.97
67052;BME280;53957;47.222;18.670;2022-08-07T06:40:23;100527.81;;;18.49;96.36
67052;BME280;53957;47.222;18.670;2022-08-07T06:43:35;100526.09;;;18.44;99.22
67052;BME280;53957;47.222;18.670;2022-08-07T06:46:41;100540.56;;;18.48;97.58
67052;BME280;53957;47.222;18.670;2022-08-07T06:49:55;100541.31;;;18.49;97.98
67052;BME280;53957;47.222;18.670;2022-08-07T06:53:01;100536.59;;;18.46;97.25
67052;BME280;53957;47.222;18.670;2022-08-07T06:56:07;100553.53;;;18.55;97.83
67052;BME280;53957;47.222;18.670;2022-08-07T06:59:21;100542.84;;;18.59;97.99
67052;BME280;53957;47.222;18.670;2022-08-07T07:02:46;100540.19;;;18.29;96.03
67052;BME280;53957;47.222;18.670;2022-08-07T07:06:00;100542.13;;;18.49;96.92
67052;BME280;53957;47.222;18.670;2022-08-07T07:15:35;100548.09;;;18.34;99.78
67052;BME280;53957;47.222;18.670;2022-08-07T07:18:48;100540.78;;;18.34;100.00
67052;BME280;53957;47.222;18.670;2022-08-07T07:21:52;100553.44;;;18.43;99.58
67052;BME280;53957;47.222;18.670;2022-08-07T07:25:15;100554.63;;;18.54;100.00
67052;BME280;53957;47.222;18.670;2022-08-07T07:29:00;100553.44;;;18.64;100.00
67052;BME280;53957;47.222;18.670;2022-08-07T07:32:25;100551.63;;;18.77;100.00
67052;BME280;53957;47.222;18.670;2022-08-07T07:35:32;100551.75;;;18.80;100.00
67052;BME280;53957;47.222;18.670;2022-08-07T07:38:57;100551.22;;;18.87;100.00
67052;BME280;53957;47.222;18.670;2022-08-07T07:42:04;100566.06;;;19.02;100.00
67052;BME280;53957;47.222;18.670;2022-08-07T07:45:17;100559.94;;;19.14;99.22
67052;BME280;53957;47.222;18.670;2022-08-07T07:48:25;100554.72;;;19.42;98.19
67052;BME280;53957;47.222;18.670;2022-08-07T07:51:38;100560.69;;;19.48;93.31
67052;BME280;53957;47.222;18.670;2022-08-07T07:55:02;100565.22;;;19.56;100.00
67052;BME280;53957;47.222;18.670;2022-08-07T07:58:05;100569.53;;;19.70;99.30
67052;BME280;53957;47.222;18.670;2022-08-07T08:01:12;100562.37;;;19.86;97.69
67052;BME280;53957;47.222;18.670;2022-08-07T08:04:39;100564.97;;;19.95;95.45
67052;BME280;53957;47.222;18.670;2022-08-07T08:07:45;100561.03;;;20.05;96.97
67052;BME280;53957;47.222;18.670;2022-08-07T08:11:07;100563.84;;;20.08;97.69
67052;BME280;53957;47.222;18.670;2022-08-07T08:14:32;100563.06;;;20.08;95.99
67052;BME280;53957;47.222;18.670;2022-08-07T08:17:38;100557.19;;;20.31;93.73
67052;BME280;53957;47.222;18.670;2022-08-07T08:21:00;100557.28;;;20.47;94.32
67052;BME280;53957;47.222;18.670;2022-08-07T08:24:05;100564.00;;;20.65;95.54
67052;BME280;53957;47.222;18.670;2022-08-07T08:27:52;100561.81;;;20.96;89.03
67052;BME280;53957;47.222;18.670;2022-08-07T08:31:04;100557.66;;;21.14;88.99
67052;BME280;53957;47.222;18.670;2022-08-07T08:34:08;100548.59;;;21.22;89.87
67052;BME280;53957;47.222;18.670;2022-08-07T08:37:22;100554.03;;;21.38;90.09
67052;BME280;53957;47.222;18.670;2022-08-07T08:41:07;100552.16;;;21.71;87.59
67052;BME280;53957;47.222;18.670;2022-08-07T08:44:37;100550.41;;;21.95;88.56
67052;BME280;53957;47.222;18.670;2022-08-07T08:51:38;100557.50;;;22.90;79.56
67052;BME280;53957;47.222;18.670;2022-08-07T08:55:20;100560.69;;;22.92;76.81
67052;BME280;53957;47.222;18.670;2022-08-07T08:58:52;100562.53;;;22.88;77.36
67052;BME280;53957;47.222;18.670;2022-08-07T09:02:16;100552.44;;;24.24;69.02
67052;BME280;53957;47.222;18.670;2022-08-07T09:05:55;100551.47;;;24.67;68.65
67052;BME280;53957;47.222;18.670;2022-08-07T09:09:39;100550.94;;;25.26;63.88
67052;BME280;53957;47.222;18.670;2022-08-07T09:16:40;100563.34;;;26.06;61.29
67052;BME280;53957;47.222;18.670;2022-08-07T09:19:56;100557.34;;;25.85;60.51
67052;BME280;53957;47.222;18.670;2022-08-07T09:23:12;100559.78;;;26.01;59.98
67052;BME280;53957;47.222;18.670;2022-08-07T09:30:45;100543.13;;;27.09;56.82
67052;BME280;53957;47.222;18.670;2022-08-07T09:37:03;100545.53;;;27.36;55.85
67052;BME280;53957;47.222;18.670;2022-08-07T09:40:22;100536.88;;;27.02;55.37
67052;BME280;53957;47.222;18.670;2022-08-07T09:47:25;100525.78;;;26.73;60.72
67052;BME280;53957;47.222;18.670;2022-08-07T09:51:05;100530.56;;;26.79;60.96
67052;BME280;53957;47.222;18.670;2022-08-07T09:54:43;100521.13;;;26.73;61.02
67052;BME280;53957;47.222;18.670;2022-08-07T10:20:36;100504.03;;;27.74;53.04
67052;BME280;53957;47.222;18.670;2022-08-07T10:23:58;100504.81;;;27.20;52.96
67052;BME280;53957;47.222;18.670;2022-08-07T10:34:25;100487.56;;;27.09;52.41
67052;BME280;53957;47.222;18.670;2022-08-07T10:41:35;100480.13;;;28.92;48.38
67052;BME280;53957;47.222;18.670;2022-08-07T10:45:14;100477.44;;;29.41;50.40
67052;BME280;53957;47.222;18.670;2022-08-07T10:48:35;100480.69;;;29.21;51.74
67052;BME280;53957;47.222;18.670;2022-08-07T10:55:19;100469.72;;;29.21;49.38
67052;BME280;53957;47.222;18.670;2022-08-07T11:06:42;100466.94;;;28.62;50.43
67052;BME280;53957;47.222;18.670;2022-08-07T11:09:36;100459.28;;;28.27;49.97
67052;BME280;53957;47.222;18.670;2022-08-07T11:13:56;100453.69;;;28.46;50.44
67052;BME280;53957;47.222;18.670;2022-08-07T11:21:36;100451.31;;;28.55;48.41
67052;BME280;53957;47.222;18.670;2022-08-07T11:24:29;100444.72;;;29.05;49.15
67052;BME280;53957;47.222;18.670;2022-08-07T11:34:38;100436.50;;;29.01;48.25
67052;BME280;53957;47.222;18.670;2022-08-07T11:38:06;100428.88;;;29.23;48.21
67052;BME280;53957;47.222;18.670;2022-08-07T11:41:22;100425.31;;;29.27;48.07
67052;BME280;53957;47.222;18.670;2022-08-07T11:52:38;100416.81;;;29.55;45.28
67052;BME280;53957;47.222;18.670;2022-08-07T12:00:08;100413.03;;;28.97;46.91
67052;BME280;53957;47.222;18.670;2022-08-07T12:07:09;100403.19;;;29.45;45.56
67052;BME280;53957;47.222;18.670;2022-08-07T12:10:31;100399.75;;;29.37;47.42
67052;BME280;53957;47.222;18.670;2022-08-07T12:13:40;100398.31;;;29.21;47.56
67052;BME280;53957;47.222;18.670;2022-08-07T12:17:00;100396.84;;;29.06;48.47
67052;BME280;53957;47.222;18.670;2022-08-07T12:20:22;100389.53;;;29.41;44.96
67052;BME280;53957;47.222;18.670;2022-08-07T12:23:53;100384.09;;;29.34;46.17
67052;BME280;53957;47.222;18.670;2022-08-07T12:27:15;100386.47;;;29.32;46.18
67052;BME280;53957;47.222;18.670;2022-08-07T12:30:32;100388.94;;;29.15;45.60
67052;BME280;53957;47.222;18.670;2022-08-07T12:33:37;100383.16;;;28.50;46.73
67052;BME280;53957;47.222;18.670;2022-08-07T12:37:02;100377.66;;;28.50;51.04
67052;BME280;53957;47.222;18.670;2022-08-07T12:40:23;100372.25;;;28.39;48.08
67052;BME280;53957;47.222;18.670;2022-08-07T12:43:46;100368.00;;;28.23;47.67
67052;BME280;53957;47.222;18.670;2022-08-07T12:50:51;100365.19;;;28.38;47.32
67052;BME280;53957;47.222;18.670;2022-08-07T12:54:03;100370.84;;;28.02;52.97
67052;BME280;53957;47.222;18.670;2022-08-07T12:57:33;100365.72;;;28.04;51.95
67052;BME280;53957;47.222;18.670;2022-08-07T13:01:17;100359.88;;;28.02;53.70
67052;BME280;53957;47.222;18.670;2022-08-07T13:04:44;100350.44;;;28.10;48.15
67052;BME280;53957;47.222;18.670;2022-08-07T13:08:28;100361.28;;;28.39;49.07
67052;BME280;53957;47.222;18.670;2022-08-07T13:11:52;100355.78;;;28.91;49.27
67052;BME280;53957;47.222;18.670;2022-08-07T13:18:59;100343.25;;;29.36;44.73
67052;BME280;53957;47.222;18.670;2022-08-07T13:25:35;100352.50;;;29.49;44.71
67052;BME280;53957;47.222;18.670;2022-08-07T13:28:58;100349.13;;;29.72;44.61
67052;BME280;53957;47.222;18.670;2022-08-07T13:32:14;100340.16;;;29.99;43.02
67052;BME280;53957;47.222;18.670;2022-08-07T13:35:54;100338.00;;;29.83;45.16
67052;BME280;53957;47.222;18.670;2022-08-07T13:39:34;100326.34;;;29.72;44.17
67052;BME280;53957;47.222;18.670;2022-08-07T13:43:01;100326.53;;;29.58;44.01
67052;BME280;53957;47.222;18.670;2022-08-07T13:46:07;100313.88;;;29.64;45.07
67052;BME280;53957;47.222;18.670;2022-08-07T13:49:37;100312.16;;;29.77;44.44
67052;BME280;53957;47.222;18.670;2022-08-07T13:53:01;100295.19;;;29.51;47.83
67052;BME280;53957;47.222;18.670;2022-08-07T13:56:04;100300.53;;;29.66;45.29
67052;BME280;53957;47.222;18.670;2022-08-07T13:59:19;100295.28;;;30.06;42.86
67052;BME280;53957;47.222;18.670;2022-08-07T14:02:26;100282.47;;;29.96;43.19
67052;BME280;53957;47.222;18.670;2022-08-07T14:05:35;100292.97;;;29.39;46.09
67052;BME280;53957;47.222;18.670;2022-08-07T14:08:45;100288.44;;;29.91;45.40
67052;BME280;53957;47.222;18.670;2022-08-07T14:11:59;100286.97;;;30.10;44.44
67052;BME280;53957;47.222;18.670;2022-08-07T14:15:33;100293.78;;;30.29;45.51
67052;BME280;53957;47.222;18.670;2022-08-07T14:18:43;100284.37;;;29.68;46.25
67052;BME280;53957;47.222;18.670;2022-08-07T14:21:51;100274.75;;;29.83;45.76
67052;BME280;53957;47.222;18.670;2022-08-07T14:25:16;100280.59;;;29.85;44.06
67052;BME280;53957;47.222;18.670;2022-08-07T14:28:21;100283.34;;;30.16;45.86
67052;BME280;53957;47.222;18.670;2022-08-07T14:31:46;100265.72;;;29.83;45.89
67052;BME280;53957;47.222;18.670;2022-08-07T14:35:01;100267.63;;;29.90;46.01
67052;BME280;53957;47.222;18.670;2022-08-07T14:38:07;100263.69;;;29.91;43.64
67052;BME280;53957;47.222;18.670;2022-08-07T14:41:29;100267.06;;;30.02;46.77
67052;BME280;53957;47.222;18.670;2022-08-07T14:44:57;100265.66;;;29.86;44.49
67052;BME280;53957;47.222;18.670;2022-08-07T14:48:27;100252.00;;;29.52;47.39
67052;BME280;53957;47.222;18.670;2022-08-07T14:51:36;100257.31;;;29.66;45.20
67052;BME280;53957;47.222;18.670;2022-08-07T14:55:00;100245.09;;;29.40;46.19
67052;BME280;53957;47.222;18.670;2022-08-07T14:58:05;100246.22;;;29.08;47.47
67052;BME280;53957;47.222;18.670;2022-08-07T15:01:27;100247.13;;;29.29;45.45
67052;BME280;53957;47.222;18.670;2022-08-07T15:04:46;100245.34;;;29.49;46.68
67052;BME280;53957;47.222;18.670;2022-08-07T15:07:56;100244.59;;;29.49;46.67
67052;BME280;53957;47.222;18.670;2022-08-07T15:11:07;100244.00;;;29.34;45.27
67052;BME280;53957;47.222;18.670;2022-08-07T15:14:22;100235.25;;;29.43;43.90
67052;BME280;53957;47.222;18.670;2022-08-07T15:17:33;100232.38;;;29.53;44.82
67052;BME280;53957;47.222;18.670;2022-08-07T15:20:58;100228.91;;;29.46;46.71
67052;BME280;53957;47.222;18.670;2022-08-07T15:24:14;100227.13;;;29.32;45.41
67052;BME280;53957;47.222;18.670;2022-08-07T15:27:40;100233.56;;;29.18;46.60
67052;BME280;53957;47.222;18.670;2022-08-07T15:31:08;100235.25;;;29.08;46.46
67052;BME280;53957;47.222;18.670;2022-08-07T15:34:13;100228.06;;;29.18;46.49
67052;BME280;53957;47.222;18.670;2022-08-07T15:37:25;100226.19;;;29.07;44.90
67052;BME280;53957;47.222;18.670;2022-08-07T15:40:50;100224.94;;;28.81;47.43
67052;BME280;53957;47.222;18.670;2022-08-07T15:44:18;100224.03;;;28.91;47.98
67052;BME280;53957;47.222;18.670;2022-08-07T15:47:27;100229.56;;;28.88;46.83
67052;BME280;53957;47.222;18.670;2022-08-07T15:50:57;100213.37;;;28.55;48.12
67052;BME280;53957;47.222;18.670;2022-08-07T15:54:22;100220.06;;;28.54;47.72
67052;BME280;53957;47.222;18.670;2022-08-07T15:57:28;100220.00;;;28.62;46.23
67052;BME280;53957;47.222;18.670;2022-08-07T16:00:50;100205.25;;;28.44;49.05
67052;BME280;53957;47.222;18.670;2022-08-07T16:04:01;100216.13;;;28.55;46.73
67052;BME280;53957;47.222;18.670;2022-08-07T16:07:15;100213.13;;;28.42;48.17
67052;BME280;53957;47.222;18.670;2022-08-07T16:10:42;100216.37;;;28.26;48.77
67052;BME280;53957;47.222;18.670;2022-08-07T16:14:02;100214.94;;;28.11;47.37
67052;BME280;53957;47.222;18.670;2022-08-07T16:21:02;100218.69;;;27.72;49.87
67052;BME280;53957;47.222;18.670;2022-08-07T16:24:31;100215.44;;;27.91;48.42
67052;BME280;53957;47.222;18.670;2022-08-07T16:31:45;100210.88;;;27.67;50.33
67052;BME280;53957;47.222;18.670;2022-08-07T16:35:27;100211.31;;;27.58;50.18
67052;BME280;53957;47.222;18.670;2022-08-07T16:39:14;100210.13;;;27.62;49.59
67052;BME280;53957;47.222;18.670;2022-08-07T16:46:16;100212.19;;;27.37;50.87
67052;BME280;53957;47.222;18.670;2022-08-07T16:57:27;100215.34;;;27.31;50.15
67052;BME280;53957;47.222;18.670;2022-08-07T17:04:55;100208.75;;;27.14;49.67
67052;BME280;53957;47.222;18.670;2022-08-07T17:08:07;100213.06;;;27.05;50.56
67052;BME280;53957;47.222;18.670;2022-08-07T17:11:31;100212.31;;;27.00;51.03
67052;BME280;53957;47.222;18.670;2022-08-07T17:18:30;100220.16;;;26.88;50.26
67052;BME280;53957;47.222;18.670;2022-08-07T17:21:46;100217.06;;;26.78;51.96
67052;BME280;53957;47.222;18.670;2022-08-07T17:28:23;100217.44;;;26.59;52.63
67052;BME280;53957;47.222;18.670;2022-08-07T17:34:53;100223.31;;;26.43;51.72
67052;BME280;53957;47.222;18.670;2022-08-07T17:38:23;100223.28;;;26.21;53.37
67052;BME280;53957;47.222;18.670;2022-08-07T17:42:32;100220.97;;;26.16;53.86
67052;BME280;53957;47.222;18.670;2022-08-07T17:46:18;100227.22;;;26.09;53.18
67052;BME280;53957;47.222;18.670;2022-08-07T17:49:59;100234.56;;;25.91;54.09
67052;BME280;53957;47.222;18.670;2022-08-07T17:53:07;100239.63;;;25.85;53.44
67052;BME280;53957;47.222;18.670;2022-08-07T17:56:34;100238.84;;;25.88;52.94
67052;BME280;53957;47.222;18.670;2022-08-07T17:59:53;100247.03;;;25.81;54.22
67052;BME280;53957;47.222;18.670;2022-08-07T18:06:14;100260.22;;;25.57;54.74
67052;BME280;53957;47.222;18.670;2022-08-07T18:09:40;100255.94;;;25.56;54.63
67052;BME280;53957;47.222;18.670;2022-08-07T18:16:46;100270.25;;;25.38;54.86
67052;BME280;53957;47.222;18.670;2022-08-07T18:20:15;100266.63;;;25.20;55.79
67052;BME280;53957;47.222;18.670;2022-08-07T18:24:04;100277.53;;;25.13;56.08
67052;BME280;53957;47.222;18.670;2022-08-07T18:30:27;100287.56;;;25.01;55.74
67052;BME280;53957;47.222;18.670;2022-08-07T18:37:52;100281.19;;;24.83;56.34
67052;BME280;53957;47.222;18.670;2022-08-07T18:41:27;100286.97;;;24.70;56.89
67052;BME280;53957;47.222;18.670;2022-08-07T18:45:01;100292.66;;;24.58;56.95
67052;BME280;53957;47.222;18.670;2022-08-07T18:48:43;100295.75;;;24.53;57.31
67052;BME280;53957;47.222;18.670;2022-08-07T18:52:50;100307.38;;;24.46;56.77
67052;BME280;53957;47.222;18.670;2022-08-07T19:00:01;100300.31;;;24.41;57.45
67052;BME280;53957;47.222;18.670;2022-08-07T19:06:59;100311.75;;;24.17;57.83
67052;BME280;53957;47.222;18.670;2022-08-07T19:10:17;100316.84;;;24.18;58.16
67052;BME280;53957;47.222;18.670;2022-08-07T19:16:54;100330.31;;;24.07;57.53
67052;BME280;53957;47.222;18.670;2022-08-07T19:20:16;100339.31;;;24.08;57.88
67052;BME280;53957;47.222;18.670;2022-08-07T19:23:43;100340.50;;;24.10;57.54
67052;BME280;53957;47.222;18.670;2022-08-07T19:27:09;100341.66;;;24.09;58.01
67052;BME280;53957;47.222;18.670;2022-08-07T19:30:34;100339.44;;;24.19;57.85
67052;BME280;53957;47.222;18.670;2022-08-07T19:33:59;100342.97;;;24.23;57.76
67052;BME280;53957;47.222;18.670;2022-08-07T19:37:10;100346.75;;;24.15;57.62
67052;BME280;53957;47.222;18.670;2022-08-07T19:40:19;100344.50;;;24.20;57.51
67052;BME280;53957;47.222;18.670;2022-08-07T19:43:38;100347.62;;;24.22;57.42
67052;BME280;53957;47.222;18.670;2022-08-07T19:47:08;100344.06;;;24.18;57.46
67052;BME280;53957;47.222;18.670;2022-08-07T19:50:18;100348.16;;;24.01;58.16
67052;BME280;53957;47.222;18.670;2022-08-07T19:53:54;100357.47;;;24.00;58.50